Time;durP1;ratioP1;P1;durP2;ratioP2;P2;SDS_P1;SDS_P2;PMS_P1;PMS_P2;Temp;Humidity;BMP_temperature;BMP_pressure;BME280_temperature;BME280_humidity;BME280_pressure;Samples;Min_cycle;Max_cycle;Signal;HPM_P1;HPM_P2
2023/07/26 00:01:55;;;;;;;13.80;5.60;;;;;;;32.11;100.00;99179.98;109007;1254;75003;-88
2023/07/26 00:04:44;;;;;;;11.50;6.00;;;;;;;32.37;99.66;99178.95;109057;1253;59589;-89
2023/07/26 00:07:33;;;;;;;11.10;5.40;;;;;;;32.44;98.30;99168.64;109046;1253;59002;-87
2023/07/26 00:10:21;;;;;;;9.30;5.10;;;;;;;32.43;97.54;99158.42;109051;1253;67216;-89
2023/07/26 00:13:09;;;;;;;11.70;5.00;;;;;;;32.43;96.90;99153.56;109071;1254;59478;-88
2023/07/26 00:15:58;;;;;;;10.40;5.20;;;;;;;32.54;95.38;99151.56;109089;1254;65878;-89
2023/07/26 00:18:47;;;;;;;8.90;5.00;;;;;;;32.54;94.75;99154.33;109044;1258;58306;-90
2023/07/26 00:21:35;;;;;;;13.60;5.40;;;;;;;32.53;94.59;99159.48;109297;1251;58465;-88
2023/07/26 00:24:24;;;;;;;9.80;5.70;;;;;;;32.61;93.77;99143.81;109085;1251;64914;-88
2023/07/26 00:27:14;;;;;;;10.60;5.30;;;;;;;32.62;93.25;99135.68;109182;1254;62370;-87
2023/07/26 00:30:02;;;;;;;12.10;5.30;;;;;;;32.65;92.89;99135.83;109178;1251;65349;-87
2023/07/26 00:32:51;;;;;;;9.20;5.10;;;;;;;32.50;94.12;99141.27;109162;1254;58518;-87
2023/07/26 00:35:40;;;;;;;9.20;5.00;;;;;;;32.43;95.38;99134.81;109239;1251;58475;-88
2023/07/26 00:38:29;;;;;;;11.60;4.90;;;;;;;32.47;95.11;99120.40;109313;1251;67696;-87
2023/07/26 00:41:17;;;;;;;10.40;5.20;;;;;;;32.49;94.58;99116.54;109151;1254;61999;-89
2023/07/26 00:44:06;;;;;;;6.10;4.40;;;;;;;32.46;95.52;99116.30;109177;1254;64774;-89
2023/07/26 00:46:55;;;;;;;10.10;5.30;;;;;;;32.39;96.02;99144.09;109251;1251;58294;-88
2023/07/26 00:49:45;;;;;;;10.70;5.20;;;;;;;32.33;96.68;99194.00;109209;1251;58292;-89
2023/07/26 00:52:33;;;;;;;9.10;5.10;;;;;;;32.25;97.07;99214.48;109185;1251;63747;-89
2023/07/26 00:55:22;;;;;;;9.60;5.10;;;;;;;32.23;96.84;99202.58;109042;1254;62047;-89
2023/07/26 00:58:11;;;;;;;8.30;4.70;;;;;;;32.11;96.87;99188.39;109204;1253;65559;-89
2023/07/26 01:01:00;;;;;;;9.10;4.80;;;;;;;32.02;96.82;99192.17;109213;1251;58842;-89
2023/07/26 01:03:48;;;;;;;12.00;5.10;;;;;;;32.02;96.22;99195.88;109084;1251;60185;-88
2023/07/26 01:06:47;;;;;;;10.60;4.40;;;;;;;32.02;95.25;99188.84;109183;1251;66610;-89
2023/07/26 01:09:50;;;;;;;10.30;4.80;;;;;;;31.90;95.67;99184.86;109038;1251;59873;-89
2023/07/26 01:12:46;;;;;;;9.80;3.80;;;;;;;31.76;95.86;99174.15;109187;1251;65822;-89
2023/07/26 01:15:36;;;;;;;7.50;3.80;;;;;;;31.72;95.05;99174.02;109207;1251;58896;-88
2023/07/26 01:18:24;;;;;;;8.20;3.90;;;;;;;31.71;94.13;99166.02;109158;1254;58363;-88
2023/07/26 01:21:13;;;;;;;5.30;3.50;;;;;;;31.69;93.28;99157.36;109120;1251;63901;-90
2023/07/26 01:24:02;;;;;;;8.10;3.90;;;;;;;31.62;92.60;99159.61;109070;1253;62226;-88
2023/07/26 01:26:50;;;;;;;5.30;3.30;;;;;;;31.57;91.89;99164.11;109044;1253;65129;-87
2023/07/26 01:29:39;;;;;;;8.50;3.60;;;;;;;31.55;90.93;99166.02;109020;1252;58746;-89
2023/07/26 01:32:27;;;;;;;8.90;4.30;;;;;;;31.47;90.54;99173.48;109002;1251;245571;-87
2023/07/26 01:35:17;;;;;;;7.30;3.80;;;;;;;31.37;90.24;99181.20;109204;1251;65984;-87
2023/07/26 01:38:06;;;;;;;7.00;3.40;;;;;;;31.27;90.18;99192.09;109093;1254;60929;-88
2023/07/26 01:40:54;;;;;;;5.00;3.40;;;;;;;31.22;89.97;99195.31;109012;1254;66272;-88
2023/07/26 01:43:43;;;;;;;6.30;2.70;;;;;;;31.13;90.08;99198.80;109045;1253;58434;-88
2023/07/26 01:46:32;;;;;;;5.90;2.70;;;;;;;31.06;90.16;99199.91;109230;1251;58963;-87
2023/07/26 01:49:21;;;;;;;5.90;2.50;;;;;;;31.04;89.66;99213.42;109199;1251;66485;-88
2023/07/26 01:52:12;;;;;;;7.60;2.60;;;;;;;31.01;89.67;99221.66;109046;1254;60578;-88
2023/07/26 01:55:01;;;;;;;6.40;3.30;;;;;;;30.93;89.84;99230.19;109218;1253;62559;-88
2023/07/26 01:57:50;;;;;;;5.40;2.50;;;;;;;30.92;89.45;99243.52;109058;1253;58342;-88
2023/07/26 02:00:39;;;;;;;5.20;2.30;;;;;;;30.90;88.98;99258.40;109077;1254;59029;-88
2023/07/26 02:03:27;;;;;;;5.70;2.70;;;;;;;30.83;89.30;99256.73;109115;1254;64922;-88
2023/07/26 02:06:16;;;;;;;7.30;2.50;;;;;;;30.79;89.36;99268.02;109045;1251;61451;-89
2023/07/26 02:09:06;;;;;;;4.50;2.30;;;;;;;30.79;89.05;99274.86;109174;1251;64592;-88
2023/07/26 02:11:54;;;;;;;6.00;2.60;;;;;;;30.77;89.03;99267.77;109155;1251;58582;-89
2023/07/26 02:14:44;;;;;;;4.20;2.00;;;;;;;30.73;89.06;99270.85;109046;1253;58943;-88
2023/07/26 02:17:32;;;;;;;5.70;2.20;;;;;;;30.74;88.81;99276.23;109216;1251;67005;-89
2023/07/26 02:20:21;;;;;;;8.00;2.90;;;;;;;30.66;89.16;99282.98;109198;1251;59211;-89
2023/07/26 02:23:09;;;;;;;6.30;2.10;;;;;;;30.57;89.33;99295.94;109098;1251;65574;-89
2023/07/26 02:25:58;;;;;;;4.00;1.80;;;;;;;30.49;89.59;99296.34;109030;1251;59796;-88
2023/07/26 02:28:47;;;;;;;5.30;1.90;;;;;;;30.52;89.19;99292.05;109044;1252;58460;-88
2023/07/26 02:31:35;;;;;;;5.20;1.90;;;;;;;30.54;88.14;99294.66;109133;1251;66698;-88
2023/07/26 02:34:24;;;;;;;5.50;1.60;;;;;;;30.51;87.78;99297.96;109029;1252;58732;-88
2023/07/26 02:37:12;;;;;;;5.20;1.70;;;;;;;30.55;86.81;99292.30;109175;1254;65775;-89
2023/07/26 02:40:01;;;;;;;6.30;1.80;;;;;;;30.58;85.91;99292.86;109149;1251;58688;-89
2023/07/26 02:42:50;;;;;;;5.00;1.80;;;;;;;30.65;84.67;99288.39;109015;1251;59039;-89
2023/07/26 02:45:42;;;;;;;5.20;1.90;;;;;;;30.68;83.93;99308.38;109241;1251;65879;-89
2023/07/26 02:48:32;;;;;;;5.20;1.90;;;;;;;30.70;83.49;99312.98;109239;1251;62762;-89
2023/07/26 02:51:20;;;;;;;5.30;1.60;;;;;;;30.84;81.98;99323.91;109148;1253;65589;-89
2023/07/26 02:54:09;;;;;;;5.60;2.10;;;;;;;30.91;81.21;99326.70;109100;1253;58969;-89
2023/07/26 02:56:57;;;;;;;4.80;1.60;;;;;;;30.92;80.75;99338.20;109188;1251;58978;-89
2023/07/26 02:59:46;;;;;;;7.40;2.70;;;;;;;30.94;80.07;99341.91;109279;1251;65893;-88
2023/07/26 03:02:34;;;;;;;4.80;1.80;;;;;;;30.96;79.74;99345.73;109224;1251;59867;-88
2023/07/26 03:05:23;;;;;;;3.90;2.00;;;;;;;30.94;79.64;99341.69;109227;1251;66197;-91
2023/07/26 03:08:12;;;;;;;4.90;1.70;;;;;;;30.95;79.34;99343.58;109262;1251;58823;-88
2023/07/26 03:11:00;;;;;;;4.10;1.90;;;;;;;31.01;79.04;99353.17;109082;1252;59165;-88
2023/07/26 03:13:49;;;;;;;6.00;1.90;;;;;;;31.00;79.04;99362.96;109133;1254;75013;-89
2023/07/26 03:16:37;;;;;;;3.90;1.90;;;;;;;31.06;78.95;99363.75;109123;1251;58497;-88
2023/07/26 03:19:26;;;;;;;5.40;1.90;;;;;;;31.13;78.47;99369.35;109104;1251;64923;-88
2023/07/26 03:22:14;;;;;;;7.30;2.30;;;;;;;31.12;78.65;99380.27;109157;1254;58708;-89
2023/07/26 03:25:03;;;;;;;4.80;2.20;;;;;;;31.18;78.66;99377.06;109113;1251;58434;-89
2023/07/26 03:27:53;;;;;;;7.30;2.40;;;;;;;31.27;78.82;99378.73;109198;1251;67064;-89
2023/07/26 03:30:41;;;;;;;6.00;2.30;;;;;;;31.36;78.71;99385.73;109069;1251;62569;-89
2023/07/26 03:33:30;;;;;;;8.30;2.60;;;;;;;31.47;78.13;99394.14;109245;1251;66093;-88
2023/07/26 03:36:18;;;;;;;5.00;2.40;;;;;;;31.53;77.97;99398.89;109146;1251;59064;-88
2023/07/26 03:39:07;;;;;;;9.60;3.50;;;;;;;31.65;77.67;99396.43;109143;1253;59046;-88
2023/07/26 03:41:55;;;;;;;7.60;2.90;;;;;;;31.70;77.89;99390.88;109140;1251;64902;-88
2023/07/26 03:44:44;;;;;;;7.00;3.00;;;;;;;31.76;78.07;99392.47;109135;1253;60951;-89
2023/07/26 03:47:33;;;;;;;7.10;3.50;;;;;;;31.81;78.20;99403.38;109142;1253;64611;-89
2023/07/26 03:50:21;;;;;;;10.80;3.40;;;;;;;31.95;77.50;99415.08;109169;1251;58592;-89
2023/07/26 03:53:10;;;;;;;8.90;3.20;;;;;;;32.06;77.10;99418.21;109257;1251;58443;-88
2023/07/26 03:55:58;;;;;;;8.80;3.60;;;;;;;32.20;76.44;99414.21;109161;1251;65815;-88
2023/07/26 03:58:47;;;;;;;10.60;3.60;;;;;;;32.28;76.22;99413.64;109262;1251;60941;-89
2023/07/26 04:01:38;;;;;;;10.00;3.70;;;;;;;32.37;75.46;99422.14;109044;1253;74878;-88
2023/07/26 04:04:26;;;;;;;8.50;3.30;;;;;;;32.52;74.81;99424.97;109199;1251;58967;-89
2023/07/26 04:07:15;;;;;;;11.00;3.30;;;;;;;32.62;74.62;99424.45;109177;1253;58174;-88
2023/07/26 04:10:03;;;;;;;6.90;3.60;;;;;;;32.74;73.99;99429.77;109092;1251;64904;-88
2023/07/26 04:12:52;;;;;;;7.10;3.40;;;;;;;32.77;73.77;99435.73;109101;1251;58916;-89
2023/07/26 04:15:41;;;;;;;8.60;4.00;;;;;;;32.85;73.15;99435.42;109022;1251;66193;-89
2023/07/26 04:18:29;;;;;;;10.00;3.80;;;;;;;32.94;72.07;99436.96;109090;1254;58549;-89
2023/07/26 04:21:18;;;;;;;6.80;3.80;;;;;;;33.13;70.99;99436.08;109010;1251;61219;-90
2023/07/26 04:24:07;;;;;;;7.60;3.20;;;;;;;33.29;70.19;99432.06;109130;1254;67180;-88
2023/07/26 04:26:55;;;;;;;8.70;3.50;;;;;;;33.35;69.48;99434.69;109084;1251;60448;-88
2023/07/26 04:29:44;;;;;;;5.60;3.30;;;;;;;33.46;68.74;99440.02;109221;1251;66265;-88
2023/07/26 04:32:32;;;;;;;8.00;4.20;;;;;;;33.61;68.04;99442.06;109136;1254;58267;-89
2023/07/26 04:35:21;;;;;;;8.80;3.90;;;;;;;33.63;67.62;99438.52;109155;1252;58400;-89
2023/07/26 04:38:09;;;;;;;8.60;4.50;;;;;;;33.68;67.49;99439.47;109149;1254;67298;-88
2023/07/26 04:40:58;;;;;;;12.80;4.40;;;;;;;33.73;66.80;99443.71;109117;1254;61703;-89
2023/07/26 04:43:46;;;;;;;8.00;4.10;;;;;;;33.91;65.76;99446.52;109005;1251;65643;-91
2023/07/26 04:46:35;;;;;;;10.40;4.40;;;;;;;33.84;65.51;99447.34;109249;1251;58520;-90
2023/07/26 04:49:24;;;;;;;8.20;4.60;;;;;;;33.73;65.58;99445.65;109136;1253;59096;-88
2023/07/26 04:52:12;;;;;;;7.00;3.90;;;;;;;33.73;66.89;99454.17;109174;1251;64925;-89
2023/07/26 04:55:00;;;;;;;10.70;4.30;;;;;;;33.81;67.17;99465.17;109116;1251;61762;-89
2023/07/26 04:57:49;;;;;;;8.10;4.00;;;;;;;33.95;67.17;99461.61;108989;1251;66542;-89
2023/07/26 05:00:41;;;;;;;9.10;4.60;;;;;;;34.10;66.28;99458.98;109114;1252;58868;-90
2023/07/26 05:03:29;;;;;;;9.60;4.40;;;;;;;34.21;66.00;99456.06;109261;1251;58327;-90
2023/07/26 05:06:18;;;;;;;7.90;4.70;;;;;;;34.32;64.81;99452.08;109186;1251;67308;-91
2023/07/26 05:09:06;;;;;;;9.40;4.90;;;;;;;34.43;65.19;99452.05;109255;1251;61736;-90
2023/07/26 05:11:55;;;;;;;7.10;4.80;;;;;;;34.56;65.18;99454.58;109134;1252;75311;-92
2023/07/26 05:14:44;;;;;;;11.50;5.20;;;;;;;34.67;64.42;99455.70;108933;1254;58938;-89
2023/07/26 05:17:32;;;;;;;10.20;4.80;;;;;;;34.74;64.87;99451.90;109172;1251;58375;-89
2023/07/26 05:20:21;;;;;;;11.20;5.10;;;;;;;34.80;63.91;99442.42;109156;1253;65158;-90
2023/07/26 05:23:09;;;;;;;11.70;4.80;;;;;;;34.91;63.05;99446.48;109130;1251;62195;-89
2023/07/26 05:25:58;;;;;;;15.40;5.00;;;;;;;35.13;62.42;99449.60;109103;1253;66055;-89
2023/07/26 05:28:47;;;;;;;9.80;5.20;;;;;;;35.25;62.34;99437.34;109175;1252;58486;-88
2023/07/26 05:31:35;;;;;;;14.50;5.50;;;;;;;35.17;61.81;99439.16;109155;1251;58226;-90
2023/07/26 05:34:24;;;;;;;8.80;4.70;;;;;;;35.24;61.09;99448.25;109155;1250;67875;-91
2023/07/26 05:37:13;;;;;;;9.60;5.00;;;;;;;35.36;59.76;99447.32;109213;1251;61830;-91
2023/07/26 05:40:01;;;;;;;15.00;5.10;;;;;;;35.47;59.69;99441.30;109184;1252;66265;-88
2023/07/26 05:42:50;;;;;;;10.70;4.90;;;;;;;35.50;59.57;99439.73;108998;1252;59016;-88
2023/07/26 05:45:42;;;;;;;10.20;5.10;;;;;;;35.51;59.03;99435.33;109218;1253;58916;-90
2023/07/26 05:48:30;;;;;;;10.00;5.30;;;;;;;35.59;58.54;99434.16;109110;1252;67757;-90
2023/07/26 05:51:19;;;;;;;9.00;5.10;;;;;;;35.70;59.02;99429.80;109172;1251;61178;-88
2023/07/26 05:54:07;;;;;;;12.60;5.30;;;;;;;35.86;58.25;99417.44;109264;1253;65708;-89
2023/07/26 05:56:56;;;;;;;11.30;5.50;;;;;;;35.96;57.49;99419.86;109000;1253;61186;-91
2023/07/26 05:59:47;;;;;;;13.80;5.60;;;;;;;36.05;56.80;99423.46;109077;1252;59244;-91
2023/07/26 06:02:36;;;;;;;10.30;4.80;;;;;;;36.18;56.60;99426.79;109061;1254;65429;-90
2023/07/26 06:05:25;;;;;;;10.80;5.40;;;;;;;36.43;56.03;99424.20;109114;1251;70960;-90
2023/07/26 06:08:15;;;;;;;12.60;4.90;;;;;;;36.57;54.31;99421.16;108931;1251;63549;-89
2023/07/26 06:11:04;;;;;;;11.80;5.10;;;;;;;36.67;53.69;99417.67;109233;1251;58863;-90
2023/07/26 06:13:54;;;;;;;10.60;5.30;;;;;;;36.76;54.25;99416.95;109129;1251;58477;-89
2023/07/26 06:16:43;;;;;;;12.50;5.70;;;;;;;36.91;54.81;99403.17;109177;1250;64820;-90
2023/07/26 06:19:31;;;;;;;10.80;5.50;;;;;;;37.05;52.81;99393.11;109051;1252;61313;-88
2023/07/26 06:22:20;;;;;;;11.10;5.00;;;;;;;37.15;51.66;99391.82;109151;1253;64407;-91
2023/07/26 06:25:12;;;;;;;10.00;5.10;;;;;;;37.23;50.71;99389.38;108931;1253;58585;-91
2023/07/26 06:28:00;;;;;;;10.00;5.50;;;;;;;37.39;50.83;99386.66;109071;1252;58682;-89
2023/07/26 06:30:52;;;;;;;15.70;5.80;;;;;;;37.59;49.32;99379.02;108935;1252;64989;-88
2023/07/26 06:33:41;;;;;;;10.80;5.50;;;;;;;37.69;48.79;99374.94;109045;1252;62104;-90
2023/07/26 06:36:29;;;;;;;10.20;5.20;;;;;;;37.84;48.89;99377.30;109137;1253;62930;-90
2023/07/26 06:39:19;;;;;;;11.00;5.50;;;;;;;38.02;48.78;99376.27;109073;1253;58744;-89
2023/07/26 06:42:13;;;;;;;11.70;5.40;;;;;;;38.26;48.77;99369.55;109065;1252;58522;-90
2023/07/26 10:44:54;;;;;;;9.30;6.80;;;;;;;36.47;68.37;99508.44;109093;1252;60771;-90
2023/07/26 10:47:54;;;;;;;12.60;7.40;;;;;;;36.60;69.39;99518.96;109015;1253;66381;-91
2023/07/26 10:50:44;;;;;;;11.20;7.10;;;;;;;36.78;69.36;99520.46;109069;1253;58489;-91
2023/07/26 10:53:37;;;;;;;12.40;7.20;;;;;;;37.06;68.46;99524.84;108916;1253;58273;-92
2023/07/26 10:56:28;;;;;;;7.60;6.00;;;;;;;37.26;67.42;99520.69;108987;1252;67402;-92
2023/07/26 10:59:23;;;;;;;9.20;6.00;;;;;;;37.27;66.54;99518.49;109094;1253;60743;-92
2023/07/26 11:02:15;;;;;;;10.70;5.70;;;;;;;37.20;67.17;99513.89;109073;1252;65624;-91
2023/07/26 11:05:06;;;;;;;12.00;5.60;;;;;;;37.31;67.83;99507.95;109158;1252;58984;-91
2023/07/26 11:07:58;;;;;;;10.60;6.30;;;;;;;37.50;67.21;99493.28;108957;1253;58430;-91
2023/07/26 11:10:51;;;;;;;11.40;5.90;;;;;;;37.70;66.20;99497.84;109262;1252;67505;-91
2023/07/26 11:13:40;;;;;;;7.40;4.80;;;;;;;37.87;64.26;99494.08;109169;1253;63847;-92
2023/07/26 11:16:31;;;;;;;8.90;5.50;;;;;;;37.98;63.40;99489.33;108917;1253;63904;-93
2023/07/26 11:19:20;;;;;;;7.60;5.10;;;;;;;38.15;61.94;99482.48;109052;1251;58364;-91
2023/07/26 11:22:09;;;;;;;8.50;4.80;;;;;;;38.34;60.08;99475.27;109177;1252;59186;-91
2023/07/26 11:25:02;;;;;;;9.00;5.30;;;;;;;38.31;58.83;99468.49;109053;1250;65785;-92
2023/07/26 11:27:51;;;;;;;10.10;5.90;;;;;;;38.30;59.57;99471.65;109064;1254;61645;-91
2023/07/26 11:30:42;;;;;;;10.70;4.90;;;;;;;38.39;60.60;99469.55;109091;1251;62889;-91
2023/07/26 11:33:39;;;;;;;7.10;4.70;;;;;;;38.69;58.94;99455.36;108995;1251;58911;-91
2023/07/26 11:36:27;;;;;;;8.00;4.70;;;;;;;38.82;56.58;99449.85;109179;1251;58181;-91
2023/07/26 11:39:20;;;;;;;7.20;5.10;;;;;;;38.77;55.59;99451.86;109005;1251;67246;-92
2023/07/26 11:42:08;;;;;;;9.90;5.50;;;;;;;38.81;55.54;99455.69;109217;1251;60112;-92
2023/07/26 11:44:57;;;;;;;10.40;5.60;;;;;;;38.92;55.01;99460.63;109170;1253;65566;-93
2023/07/26 11:47:46;;;;;;;11.20;5.80;;;;;;;39.02;54.16;99466.95;109119;1253;58546;-93
2023/07/26 11:50:39;;;;;;;9.80;5.40;;;;;;;39.16;53.00;99465.03;109071;1251;58540;-92
2023/07/26 11:53:36;;;;;;;11.30;5.80;;;;;;;39.11;52.13;99472.30;109040;1253;66178;-92
2023/07/26 11:56:33;;;;;;;12.60;5.40;;;;;;;38.98;52.47;99469.91;109052;1250;60089;-93
2023/07/26 11:59:23;;;;;;;11.90;5.40;;;;;;;38.88;53.00;99460.98;109217;1251;65711;-93
2023/07/26 12:02:13;;;;;;;11.10;6.50;;;;;;;38.74;53.30;99449.23;109049;1251;58387;-91
2023/07/26 12:05:19;;;;;;;10.60;6.50;;;;;;;38.69;53.22;99433.89;108965;1253;58823;-93
2023/07/26 12:08:07;;;;;;;10.60;6.00;;;;;;;38.75;53.41;99431.08;109042;1254;65289;-92
2023/07/26 12:10:56;;;;;;;9.00;5.50;;;;;;;38.78;52.95;99432.61;109040;1254;62071;-92
2023/07/26 12:13:45;;;;;;;11.50;6.10;;;;;;;38.90;52.37;99434.71;109113;1251;75322;-91
2023/07/26 12:16:34;;;;;;;10.10;5.90;;;;;;;39.02;52.53;99431.89;109078;1251;59003;-93
2023/07/26 12:19:25;;;;;;;10.30;6.10;;;;;;;39.12;51.53;99427.80;109031;1251;58648;-92
2023/07/26 12:22:14;;;;;;;11.80;5.80;;;;;;;39.19;51.72;99426.58;109199;1250;68823;-92
2023/07/26 12:25:03;;;;;;;8.30;6.10;;;;;;;39.36;52.01;99421.63;109195;1251;60868;-93
2023/07/26 12:27:52;;;;;;;12.70;6.00;;;;;;;39.64;51.65;99418.55;109038;1251;64343;-92
2023/07/26 12:30:41;;;;;;;10.70;6.10;;;;;;;39.87;49.66;99415.39;109124;1251;59471;-92
2023/07/26 12:33:30;;;;;;;9.20;5.90;;;;;;;39.91;48.95;99418.13;109134;1251;58373;-92
2023/07/26 12:36:18;;;;;;;12.70;6.40;;;;;;;39.95;48.69;99417.17;108914;1254;63803;-92
2023/07/26 12:39:08;;;;;;;9.80;6.00;;;;;;;40.00;49.30;99407.48;109203;1251;59956;-92
2023/07/26 12:41:58;;;;;;;12.10;6.70;;;;;;;40.07;49.23;99405.36;109101;1251;65270;-91
2023/07/26 12:44:46;;;;;;;11.20;6.80;;;;;;;40.24;48.15;99403.72;109065;1251;59310;-92
2023/07/26 12:47:35;;;;;;;9.00;6.00;;;;;;;40.50;48.87;99402.39;109098;1251;58354;-92
2023/07/26 12:50:25;;;;;;;16.10;7.50;;;;;;;40.79;48.30;99408.00;109149;1251;65127;-91
2023/07/26 12:53:14;;;;;;;13.60;6.40;;;;;;;41.13;47.15;99404.55;108925;1251;61130;-92
2023/07/26 12:56:03;;;;;;;9.70;5.70;;;;;;;41.38;46.19;99397.79;109138;1254;64702;-90
2023/07/26 12:58:53;;;;;;;10.00;5.70;;;;;;;41.58;43.83;99396.54;109098;1256;59674;-90
2023/07/26 13:01:54;;;;;;;8.50;5.70;;;;;;;41.82;42.75;99397.12;109125;1251;58321;-90
2023/07/26 13:04:43;;;;;;;12.80;5.90;;;;;;;41.99;41.43;99397.54;109194;1253;63770;-91
2023/07/26 13:07:32;;;;;;;9.80;6.10;;;;;;;42.20;42.02;99394.70;109088;1251;61559;-92
2023/07/26 13:10:24;;;;;;;8.80;5.40;;;;;;;42.30;41.35;99389.14;109212;1251;74689;-91
2023/07/26 13:13:13;;;;;;;13.20;6.00;;;;;;;42.37;41.20;99387.21;108949;1251;58469;-91
2023/07/26 13:16:02;;;;;;;11.70;5.80;;;;;;;42.71;41.10;99384.45;108934;1253;58574;-90
2023/07/26 13:18:51;;;;;;;10.60;5.80;;;;;;;43.11;40.47;99388.30;109212;1251;67889;-90
2023/07/26 13:21:40;;;;;;;10.60;5.90;;;;;;;43.45;38.46;99387.83;109166;1251;60272;-92
2023/07/26 13:24:35;;;;;;;11.20;5.90;;;;;;;43.62;37.60;99384.63;109195;1251;63890;-93
2023/07/26 13:27:24;;;;;;;8.40;5.20;;;;;;;43.56;37.83;99383.14;109005;1251;58370;-92
2023/07/26 13:30:13;;;;;;;9.90;5.90;;;;;;;43.42;36.70;99379.70;109083;1254;58532;-93
2023/07/26 13:33:01;;;;;;;9.90;5.40;;;;;;;43.12;36.71;99381.23;109112;1251;202898;-93
2023/07/26 13:35:51;;;;;;;8.40;5.70;;;;;;;42.79;36.73;99379.72;109305;1251;69072;-92
2023/07/26 13:38:39;;;;;;;10.60;5.80;;;;;;;42.56;37.69;99371.81;109085;1254;63946;-91
2023/07/26 13:41:28;;;;;;;11.50;6.30;;;;;;;42.59;38.27;99369.25;109050;1254;58451;-91
2023/07/26 13:44:17;;;;;;;12.80;5.90;;;;;;;42.60;37.48;99369.61;109133;1251;58705;-91
2023/07/26 13:47:06;;;;;;;9.00;5.50;;;;;;;42.37;36.71;99372.02;109142;1251;65794;-90
2023/07/26 13:49:58;;;;;;;7.90;5.80;;;;;;;42.12;37.08;99376.88;109155;1251;62069;-92
2023/07/26 13:52:46;;;;;;;10.00;5.50;;;;;;;41.82;37.63;99378.66;108954;1254;65139;-92
2023/07/26 13:55:35;;;;;;;8.90;5.70;;;;;;;41.48;38.83;99375.29;108998;1251;58585;-92
2023/07/26 13:58:24;;;;;;;12.10;6.40;;;;;;;41.22;40.61;99372.80;109000;1251;58661;-92
2023/07/26 14:01:13;;;;;;;13.60;6.50;;;;;;;41.20;41.86;99371.19;109056;1251;66789;-91
2023/07/26 14:04:02;;;;;;;15.30;6.40;;;;;;;41.11;42.46;99375.42;108988;1259;62338;-92
2023/07/26 14:06:51;;;;;;;13.10;6.00;;;;;;;41.03;44.59;99366.73;108965;1256;72186;-93
2023/07/26 14:09:40;;;;;;;10.90;6.00;;;;;;;40.93;44.99;99365.27;109124;1251;58696;-92
2023/07/26 14:12:29;;;;;;;8.60;5.80;;;;;;;40.91;45.16;99360.98;108987;1251;58763;-93
2023/07/26 14:15:18;;;;;;;13.50;6.70;;;;;;;40.77;45.11;99356.25;109037;1254;67332;-94
2023/07/26 14:18:06;;;;;;;12.20;6.30;;;;;;;40.52;46.36;99356.63;109037;1251;71127;-91
2023/07/26 14:20:55;;;;;;;10.40;5.90;;;;;;;40.25;48.09;99365.60;109143;1251;66728;-92
2023/07/26 14:23:44;;;;;;;10.50;5.60;;;;;;;39.86;51.43;99363.55;109196;1251;58391;-91
2023/07/26 14:26:33;;;;;;;11.00;6.10;;;;;;;39.55;54.94;99363.69;109125;1251;58669;-91
2023/07/26 14:29:22;;;;;;;8.90;5.90;;;;;;;39.36;56.36;99359.25;109129;1251;68000;-92
2023/07/26 14:32:14;;;;;;;14.20;6.30;;;;;;;39.18;56.31;99353.77;109110;1251;62216;-92
2023/07/26 14:35:03;;;;;;;13.40;6.30;;;;;;;38.94;58.03;99353.13;109133;1251;64148;-92
2023/07/26 14:37:51;;;;;;;11.50;6.10;;;;;;;38.75;58.27;99355.55;109108;1251;58794;-92
2023/07/26 14:40:40;;;;;;;9.30;6.30;;;;;;;38.60;58.81;99360.14;109197;1251;58277;-92
2023/07/26 14:43:29;;;;;;;10.20;6.30;;;;;;;38.55;59.40;99361.52;109238;1251;67310;-92
2023/07/26 14:46:17;;;;;;;10.90;6.20;;;;;;;38.46;59.93;99362.50;109146;1254;61585;-92
2023/07/26 14:49:06;;;;;;;10.30;6.10;;;;;;;38.32;60.72;99361.09;109153;1251;65643;-93
2023/07/26 14:51:57;;;;;;;14.00;6.40;;;;;;;38.25;61.26;99358.56;109015;1251;59282;-93
2023/07/26 14:54:46;;;;;;;9.30;5.90;;;;;;;38.25;62.03;99358.45;109047;1251;58331;-92
2023/07/26 14:57:35;;;;;;;11.30;6.30;;;;;;;38.18;63.36;99360.25;109205;1250;64470;-91
2023/07/26 15:00:24;;;;;;;12.00;5.80;;;;;;;38.16;64.40;99360.14;109095;1251;59011;-92
2023/07/26 15:03:13;;;;;;;11.10;6.70;;;;;;;38.14;65.89;99358.86;109096;1251;67660;-92
2023/07/26 15:06:01;;;;;;;11.30;6.70;;;;;;;38.09;65.89;99359.17;109185;1251;59481;-91
2023/07/26 15:08:50;;;;;;;10.80;6.30;;;;;;;38.04;67.28;99357.38;109183;1251;59140;-90
2023/07/26 15:11:39;;;;;;;10.80;6.70;;;;;;;37.95;67.84;99354.84;109058;1251;65292;-91
2023/07/26 15:14:27;;;;;;;15.20;7.20;;;;;;;37.86;68.88;99352.34;108989;1251;60318;-91
2023/07/26 15:17:16;;;;;;;12.40;6.70;;;;;;;37.80;70.13;99353.40;109139;1251;65983;-90
2023/07/26 15:20:05;;;;;;;12.00;6.80;;;;;;;37.80;69.88;99354.43;109156;1254;59726;-92
2023/07/26 15:22:54;;;;;;;11.30;6.20;;;;;;;37.73;69.50;99346.34;109118;1251;59871;-90
2023/07/26 15:25:55;;;;;;;15.00;6.90;;;;;;;37.69;70.51;99337.83;108932;1251;67554;-91
2023/07/26 15:28:44;;;;;;;8.60;6.00;;;;;;;37.72;70.88;99337.98;109033;1251;60201;-91
2023/07/26 15:31:32;;;;;;;10.00;6.90;;;;;;;37.70;71.21;99335.92;109118;1251;64076;-91
2023/07/26 15:34:21;;;;;;;11.10;6.30;;;;;;;37.67;71.10;99334.17;109209;1253;59843;-90
2023/07/26 15:37:12;;;;;;;10.50;6.80;;;;;;;37.60;71.51;99325.98;108864;1251;62346;-89
2023/07/26 15:40:01;;;;;;;8.90;6.50;;;;;;;37.54;72.79;99318.57;109246;1251;66128;-91
2023/07/26 15:42:52;;;;;;;9.80;6.70;;;;;;;37.55;73.49;99306.38;109115;1251;60857;-90
2023/07/26 15:45:44;;;;;;;15.70;6.70;;;;;;;37.48;73.05;99301.42;109205;1256;63734;-91
2023/07/26 15:48:35;;;;;;;12.10;6.70;;;;;;;37.48;73.14;99298.35;109300;1251;59346;-92
2023/07/26 15:51:26;;;;;;;12.00;6.60;;;;;;;37.49;73.60;99301.41;109305;1251;59148;-90
2023/07/26 15:54:15;;;;;;;11.80;6.60;;;;;;;37.50;74.17;99300.45;109240;1251;66713;-89
2023/07/26 15:57:03;;;;;;;9.90;6.60;;;;;;;37.47;74.15;99295.90;108926;1251;61578;-90
2023/07/26 15:59:53;;;;;;;12.00;6.40;;;;;;;37.45;74.09;99287.02;109173;1251;62618;-91
2023/07/26 16:02:41;;;;;;;10.20;6.40;;;;;;;37.48;74.52;99268.73;108944;1251;60632;-91
2023/07/26 16:05:34;;;;;;;13.60;6.90;;;;;;;37.44;74.95;99241.61;109069;1251;61176;-91
2023/07/26 16:08:26;;;;;;;14.20;7.20;;;;;;;37.21;76.24;99230.85;109076;1251;67962;-90
2023/07/26 16:11:18;;;;;;;14.30;7.60;;;;;;;37.03;77.68;99210.29;109194;1251;69692;-91
2023/07/26 16:14:08;;;;;;;11.70;6.70;;;;;;;36.89;78.62;99211.06;108894;1251;64988;-92
2023/07/26 16:17:00;;;;;;;11.10;6.90;;;;;;;36.81;79.46;99222.69;109130;1254;59102;-92
2023/07/26 16:19:52;;;;;;;;;;;;;;;36.84;79.68;99221.59;108926;1251;59026;-94
2023/07/26 16:22:44;;;;;;;10.70;7.00;;;;;;;36.69;80.57;99222.83;109092;1253;66984;-92
2023/07/26 16:25:35;;;;;;;12.40;6.90;;;;;;;36.70;81.25;99227.09;109062;1251;60635;-94
2023/07/26 16:28:24;;;;;;;11.90;7.30;;;;;;;36.75;81.65;99234.16;109092;1254;63738;-94
2023/07/26 16:31:14;;;;;;;13.50;7.50;;;;;;;36.78;82.07;99244.37;108927;1254;59207;-92
2023/07/26 16:34:05;;;;;;;18.10;7.80;;;;;;;36.85;82.30;99247.27;109216;1251;62101;-91
2023/07/26 16:36:53;;;;;;;14.00;7.70;;;;;;;36.82;82.55;99252.30;109228;1251;67892;-90
2023/07/26 16:39:42;;;;;;;40.20;8.50;;;;;;;36.68;83.59;99258.61;109162;1251;61721;-91
2023/07/26 16:42:30;;;;;;;22.30;8.40;;;;;;;36.61;84.14;99282.72;109159;1253;63771;-90
2023/07/26 16:45:19;;;;;;;12.30;8.00;;;;;;;36.59;84.41;99300.73;108994;1254;59093;-90
2023/07/26 16:48:08;;;;;;;16.40;7.30;;;;;;;36.53;85.39;99284.06;109135;1251;59772;-89
2023/07/26 16:50:56;;;;;;;13.90;8.20;;;;;;;36.46;85.62;99285.15;109178;1253;65815;-90
2023/07/26 16:53:45;;;;;;;11.60;6.80;;;;;;;36.35;86.08;99316.52;109051;1251;61625;-90
2023/07/26 16:56:33;;;;;;;17.80;7.00;;;;;;;36.29;86.85;99309.30;109205;1251;64619;-91
2023/07/26 16:59:22;;;;;;;13.70;7.50;;;;;;;36.20;87.29;99302.55;108996;1254;59815;-91
2023/07/26 17:02:11;;;;;;;10.00;6.90;;;;;;;36.07;88.40;99311.84;109154;1253;59804;-91
2023/07/26 17:05:00;;;;;;;12.40;7.50;;;;;;;36.03;89.19;99312.34;109120;1251;68521;-89